createdAt,value
2018-11-23T00:00:33.781Z,98.20
2018-11-23T00:03:03.452Z,97.78
2018-11-23T00:05:33.020Z,98.00
2018-11-23T00:08:02.278Z,98.83
2018-11-23T00:10:32.727Z,99.56
2018-11-23T00:13:02.070Z,100.00
2018-11-23T00:15:31.374Z,99.80
2018-11-23T00:18:00.830Z,99.70
2018-11-23T00:20:30.909Z,99.28
2018-11-23T00:23:00.257Z,100.00
2018-11-23T00:25:29.917Z,100.00
2018-11-23T00:27:59.404Z,100.00
2018-11-23T00:30:29.873Z,100.00
2018-11-23T00:32:59.460Z,99.61
2018-11-23T00:35:30.145Z,98.34
2018-11-23T00:37:59.590Z,99.88
2018-11-23T00:40:31.010Z,98.39
2018-11-23T00:43:00.799Z,99.34
2018-11-23T00:45:30.272Z,99.41
2018-11-23T00:48:00.111Z,99.58
2018-11-23T00:50:29.422Z,100.00
2018-11-23T00:53:00.085Z,100.00
2018-11-23T00:55:29.965Z,100.00
2018-11-23T00:57:59.780Z,100.00
2018-11-23T01:00:31.588Z,100.00
2018-11-23T01:03:01.581Z,97.64
2018-11-23T01:05:30.961Z,98.99
2018-11-23T01:08:00.417Z,99.20
2018-11-23T01:10:30.644Z,97.69
2018-11-23T01:13:00.354Z,100.00
2018-11-23T01:15:29.745Z,99.58
2018-11-23T01:17:59.111Z,100.00
2018-11-23T01:20:29.103Z,100.00
2018-11-23T01:22:59.038Z,100.00
2018-11-23T01:25:28.937Z,100.00
2018-11-23T01:27:58.460Z,100.00
2018-11-23T01:30:30.109Z,100.00
2018-11-23T01:32:59.509Z,100.00
2018-11-23T01:35:28.777Z,99.68
2018-11-23T01:37:58.225Z,100.00
2018-11-23T01:40:29.019Z,100.00
2018-11-23T01:42:58.865Z,100.00
2018-11-23T01:45:28.266Z,100.00
2018-11-23T01:47:57.680Z,100.00
2018-11-23T01:50:28.402Z,99.75
2018-11-23T01:52:57.948Z,100.00
2018-11-23T01:55:27.873Z,100.00
2018-11-23T01:57:57.231Z,100.00
2018-11-23T02:00:27.771Z,100.00
2018-11-23T02:02:57.496Z,100.00
2018-11-23T02:05:27.119Z,99.98
2018-11-23T02:07:56.330Z,100.00
2018-11-23T02:10:25.698Z,100.00
2018-11-23T02:12:55.029Z,100.00
2018-11-23T02:15:24.553Z,100.00
2018-11-23T02:17:54.128Z,100.00
2018-11-23T02:20:23.810Z,100.00
2018-11-23T02:22:53.214Z,100.00
2018-11-23T02:25:22.776Z,100.00
2018-11-23T02:27:52.151Z,100.00
2018-11-23T02:30:22.827Z,97.90
2018-11-23T02:32:52.283Z,97.47
2018-11-23T02:35:21.758Z,98.07
2018-11-23T02:37:51.219Z,100.00
2018-11-23T02:40:21.220Z,100.00
2018-11-23T02:42:50.725Z,100.00
2018-11-23T02:45:22.869Z,100.00
2018-11-23T02:47:52.283Z,100.00
2018-11-23T02:50:21.997Z,100.00
2018-11-23T02:52:51.466Z,98.66
2018-11-23T02:55:21.319Z,99.63
2018-11-23T02:57:50.843Z,99.32
2018-11-23T03:00:21.564Z,98.66
2018-11-23T03:02:51.073Z,99.45
2018-11-23T03:05:22.573Z,98.97
2018-11-23T03:07:51.996Z,99.98
2018-11-23T03:10:21.344Z,99.80
2018-11-23T03:12:50.787Z,100.00
2018-11-23T03:15:20.828Z,98.74
2018-11-23T03:17:51.083Z,98.36
2018-11-23T03:20:21.562Z,98.39
2018-11-23T03:22:51.064Z,100.00
2018-11-23T03:25:20.516Z,100.00
2018-11-23T03:27:49.861Z,99.36
2018-11-23T03:30:20.524Z,100.00
2018-11-23T03:32:50.548Z,100.00
2018-11-23T03:35:20.494Z,100.00
2018-11-23T03:37:49.794Z,100.00
2018-11-23T03:40:19.034Z,100.00
2018-11-23T03:42:48.422Z,100.00
2018-11-23T03:45:18.154Z,99.63
2018-11-23T03:47:47.590Z,100.00
2018-11-23T03:50:17.677Z,99.94
2018-11-23T03:52:47.391Z,100.00
2018-11-23T03:55:16.828Z,100.00
2018-11-23T03:57:46.361Z,100.00
2018-11-23T04:00:17.861Z,100.00
2018-11-23T04:02:47.391Z,100.00
2018-11-23T04:05:17.027Z,100.00
2018-11-23T04:07:46.383Z,100.00
2018-11-23T04:10:16.332Z,100.00
2018-11-23T04:12:46.108Z,100.00
2018-11-23T04:15:15.708Z,100.00
2018-11-23T04:17:45.109Z,100.00
2018-11-23T04:20:15.635Z,100.00
2018-11-23T04:22:45.025Z,100.00
2018-11-23T04:25:14.735Z,100.00
2018-11-23T04:27:44.465Z,100.00
2018-11-23T04:30:15.380Z,100.00
2018-11-23T04:32:45.188Z,100.00
2018-11-23T04:35:15.837Z,100.00
2018-11-23T04:37:46.047Z,99.61
2018-11-23T04:40:16.083Z,100.00
2018-11-23T04:42:45.368Z,99.53
2018-11-23T04:45:15.150Z,98.73
2018-11-23T04:47:44.622Z,98.44
2018-11-23T04:50:15.055Z,100.00
2018-11-23T04:52:44.795Z,100.00
2018-11-23T04:55:14.344Z,98.22
2018-11-23T04:57:44.277Z,97.37
2018-11-23T05:00:16.154Z,99.95
2018-11-23T05:02:46.342Z,100.00
2018-11-23T05:05:15.863Z,100.00
2018-11-23T05:07:46.465Z,100.00
2018-11-23T05:10:16.923Z,100.00
2018-11-23T05:12:46.335Z,100.00
2018-11-23T05:15:17.018Z,99.98
2018-11-23T05:17:46.698Z,100.00
2018-11-23T05:20:16.588Z,100.00
2018-11-23T05:22:46.170Z,100.00
2018-11-23T05:25:16.805Z,98.50
2018-11-23T05:27:46.302Z,98.19
2018-11-23T05:30:17.943Z,98.33
2018-11-23T05:32:47.330Z,98.75
2018-11-23T05:35:17.791Z,98.86
2018-11-23T05:37:47.085Z,97.92
2018-11-23T05:40:18.145Z,94.54
2018-11-23T05:42:47.372Z,96.24
2018-11-23T05:45:17.966Z,94.38
2018-11-23T05:47:47.657Z,95.43
2018-11-23T05:50:31.292Z,97.10
2018-11-23T05:53:00.913Z,94.72
2018-11-23T05:55:30.364Z,95.51
2018-11-23T05:57:59.800Z,95.28
2018-11-23T06:00:30.894Z,96.65
2018-11-23T06:03:00.306Z,94.30
2018-11-23T06:05:29.848Z,94.87
2018-11-23T06:07:59.214Z,94.86
2018-11-23T06:10:28.408Z,95.49
2018-11-23T06:12:57.867Z,94.88
2018-11-23T06:15:27.379Z,95.72
2018-11-23T06:17:56.741Z,95.42
2018-11-23T06:20:26.810Z,96.87
2018-11-23T06:22:56.576Z,96.40
2018-11-23T06:25:32.049Z,97.61
2018-11-23T06:28:01.450Z,96.75
2018-11-23T06:30:30.720Z,96.11
2018-11-23T06:33:10.761Z,93.32
2018-11-23T06:35:40.071Z,96.12
2018-11-23T06:38:09.514Z,92.86
2018-11-23T06:40:38.943Z,95.38
2018-11-23T06:43:08.375Z,95.32
2018-11-23T06:45:39.982Z,95.57
2018-11-23T06:48:10.366Z,94.64
2018-11-23T06:50:39.817Z,95.53
2018-11-23T06:53:09.384Z,93.85
2018-11-23T06:55:38.986Z,94.56
2018-11-23T06:58:08.532Z,94.30
2018-11-23T07:00:38.137Z,93.07
2018-11-23T07:03:07.617Z,94.67
2018-11-23T07:05:37.516Z,93.81
2018-11-23T07:08:07.494Z,93.61
2018-11-23T07:10:37.112Z,94.72
2018-11-23T07:13:07.005Z,94.72
2018-11-23T07:15:36.445Z,93.40
2018-11-23T07:18:06.129Z,93.05
2018-11-23T07:20:35.554Z,91.10
2018-11-23T07:23:04.896Z,91.25
2018-11-23T07:25:34.396Z,91.25
2018-11-23T07:28:03.776Z,92.00
2018-11-23T07:30:33.268Z,91.95
2018-11-23T07:33:02.641Z,91.72
2018-11-23T07:35:32.075Z,90.09
2018-11-23T07:38:01.484Z,90.13
2018-11-23T07:40:44.306Z,88.88
2018-11-23T07:43:13.736Z,87.24
2018-11-23T07:45:43.164Z,87.38
2018-11-23T07:48:12.567Z,85.03
2018-11-23T07:50:41.912Z,85.31
2018-11-23T07:53:11.410Z,86.92
2018-11-23T07:55:40.876Z,83.09
2018-11-23T07:58:10.852Z,82.62
2018-11-23T08:00:40.237Z,83.24
2018-11-23T08:03:09.483Z,83.81
2018-11-23T08:05:38.775Z,83.58
2018-11-23T08:08:08.528Z,83.43
2018-11-23T08:10:36.781Z,82.69
2018-11-23T08:13:06.334Z,83.48
2018-11-23T08:15:35.768Z,83.55
2018-11-23T08:18:05.138Z,80.97
2018-11-23T08:20:34.636Z,83.79
2018-11-23T08:23:03.908Z,85.80
2018-11-23T08:25:33.260Z,86.97
2018-11-23T08:28:02.708Z,85.60
2018-11-23T08:30:32.073Z,85.16
2018-11-23T08:33:01.465Z,85.36
2018-11-23T08:35:30.756Z,85.23
2018-11-23T08:38:00.262Z,82.12
2018-11-23T08:40:29.726Z,85.24
2018-11-23T08:42:59.243Z,83.94
2018-11-23T08:45:28.816Z,83.76
2018-11-23T08:47:58.277Z,82.55
2018-11-23T08:50:28.949Z,84.13
2018-11-23T08:52:58.432Z,83.57
2018-11-23T08:55:28.244Z,84.55
2018-11-23T08:57:57.761Z,83.17
2018-11-23T09:00:28.847Z,82.82
2018-11-23T09:02:59.620Z,81.46
2018-11-23T09:05:29.074Z,83.40
2018-11-23T09:07:58.688Z,81.02
2018-11-23T09:10:29.363Z,82.05
2018-11-23T09:13:03.174Z,83.20
2018-11-23T09:15:32.729Z,79.14
2018-11-23T09:18:02.235Z,74.59
2018-11-23T09:20:31.784Z,77.28
2018-11-23T09:23:01.232Z,77.33
2018-11-23T09:25:30.738Z,77.40
2018-11-23T09:28:00.212Z,76.41
2018-11-23T09:30:29.610Z,76.25
2018-11-23T09:32:59.015Z,80.54
2018-11-23T09:35:28.834Z,78.55
2018-11-23T09:37:58.492Z,78.41
2018-11-23T09:40:29.141Z,74.94
2018-11-23T09:42:58.681Z,74.15
2018-11-23T09:45:29.526Z,77.75
2018-11-23T09:48:00.399Z,76.37
2018-11-23T09:50:30.105Z,75.35
2018-11-23T09:53:00.754Z,75.92
2018-11-23T09:55:30.948Z,69.91
2018-11-23T09:58:00.424Z,74.69
2018-11-23T10:00:31.243Z,72.10
2018-11-23T10:03:01.040Z,76.73
2018-11-23T10:05:31.113Z,76.38
2018-11-23T10:08:01.909Z,72.87
2018-11-23T10:10:31.563Z,76.18
2018-11-23T10:13:00.932Z,78.40
2018-11-23T10:15:31.278Z,76.49
2018-11-23T10:18:00.670Z,73.26
2018-11-23T10:20:31.430Z,74.50
2018-11-23T10:23:00.718Z,74.44
2018-11-23T10:25:31.350Z,73.96
2018-11-23T10:28:00.760Z,73.40
2018-11-23T10:30:31.369Z,69.96
2018-11-23T10:33:02.006Z,72.68
2018-11-23T10:35:31.402Z,72.74
2018-11-23T10:38:02.782Z,73.05
2018-11-23T10:40:33.856Z,68.89
2018-11-23T10:43:03.340Z,70.29
2018-11-23T10:45:33.493Z,71.59
2018-11-23T10:48:04.105Z,74.95
2018-11-23T10:50:34.984Z,72.96
2018-11-23T10:53:04.203Z,69.94
2018-11-23T10:55:34.784Z,75.78
2018-11-23T10:58:04.124Z,70.15
2018-11-23T11:00:38.475Z,65.93
2018-11-23T11:03:12.739Z,67.79
2018-11-23T11:05:47.330Z,68.20
2018-11-23T11:08:16.684Z,71.96
2018-11-23T11:10:46.028Z,69.84
2018-11-23T11:13:15.602Z,67.68
2018-11-23T11:15:45.079Z,68.93
2018-11-23T11:18:14.554Z,70.31
2018-11-23T11:20:44.016Z,67.17
2018-11-23T11:23:13.603Z,70.77
2018-11-23T11:25:43.192Z,68.12
2018-11-23T11:28:12.627Z,72.72
2018-11-23T11:30:42.456Z,72.56
2018-11-23T11:33:12.056Z,77.52
2018-11-23T11:35:41.323Z,77.47
2018-11-23T11:38:10.566Z,78.10
2018-11-23T11:40:39.855Z,80.79
2018-11-23T11:43:09.138Z,79.31
2018-11-23T11:45:38.660Z,79.98
2018-11-23T11:48:08.007Z,79.28
2018-11-23T11:50:37.462Z,81.28
2018-11-23T11:53:06.954Z,81.56
2018-11-23T11:55:36.349Z,80.14
2018-11-23T11:58:05.728Z,79.79
2018-11-23T12:00:34.983Z,80.42
2018-11-23T12:03:04.455Z,80.28
2018-11-23T12:05:33.883Z,81.63
2018-11-23T12:08:03.443Z,80.91
2018-11-23T12:10:32.928Z,80.99
2018-11-23T12:13:02.391Z,80.55
2018-11-23T12:15:31.707Z,81.09
2018-11-23T12:18:01.266Z,81.34
2018-11-23T12:20:30.698Z,81.84
2018-11-23T12:22:59.965Z,82.46
2018-11-23T12:25:29.267Z,81.04
2018-11-23T12:27:58.704Z,81.03
2018-11-23T12:30:28.213Z,80.66
2018-11-23T12:32:57.564Z,80.43
2018-11-23T12:35:26.924Z,79.92
2018-11-23T12:37:56.432Z,79.84
2018-11-23T12:40:25.824Z,77.99
2018-11-23T12:42:55.252Z,78.35
2018-11-23T12:45:24.904Z,78.28
2018-11-23T12:47:54.312Z,78.41
2018-11-23T12:50:24.183Z,78.14
2018-11-23T12:52:53.532Z,78.12
2018-11-23T12:55:22.957Z,78.11
2018-11-23T12:57:52.214Z,77.28
2018-11-23T13:00:26.208Z,78.25
2018-11-23T13:02:58.066Z,74.79
2018-11-23T13:05:28.308Z,73.60
2018-11-23T13:07:58.829Z,74.20
2018-11-23T13:10:28.869Z,74.35
2018-11-23T13:12:58.892Z,74.46
2018-11-23T13:15:28.515Z,74.91
2018-11-23T13:17:58.508Z,76.43
2018-11-23T13:20:28.408Z,76.31
2018-11-23T13:22:58.001Z,76.61
2018-11-23T13:25:29.247Z,76.20
2018-11-23T13:27:59.001Z,77.46
2018-11-23T13:30:34.552Z,77.50
2018-11-23T13:33:04.073Z,77.41
2018-11-23T13:35:33.591Z,76.70
2018-11-23T13:38:03.229Z,77.67
2018-11-23T13:40:32.629Z,75.83
2018-11-23T13:43:02.083Z,75.95
2018-11-23T13:45:32.970Z,76.12
2018-11-23T13:48:02.443Z,76.12
2018-11-23T13:50:31.979Z,73.32
2018-11-23T13:53:02.493Z,74.23
2018-11-23T13:55:31.852Z,78.25
2018-11-23T13:58:01.333Z,80.01
2018-11-23T14:00:31.162Z,81.17
2018-11-23T14:03:00.615Z,82.58
2018-11-23T14:05:31.456Z,81.73
2018-11-23T14:08:01.841Z,83.84
2018-11-23T14:10:31.627Z,84.16
2018-11-23T14:13:01.066Z,84.46
2018-11-23T14:15:31.566Z,83.97
2018-11-23T14:18:01.343Z,84.61
2018-11-23T14:20:31.068Z,84.57
2018-11-23T14:23:00.426Z,85.85
2018-11-23T14:25:30.957Z,91.47
2018-11-23T14:28:00.446Z,94.25
2018-11-23T14:30:31.335Z,95.08
2018-11-23T14:33:01.434Z,96.00
2018-11-23T14:35:31.657Z,89.21
2018-11-23T14:38:01.437Z,88.59
2018-11-23T14:40:30.872Z,89.20
2018-11-23T14:43:00.416Z,90.57
2018-11-23T14:45:32.033Z,92.15
2018-11-23T14:48:05.923Z,91.79
2018-11-23T14:50:36.543Z,91.92
2018-11-23T14:53:06.003Z,93.73
2018-11-23T14:55:35.519Z,93.96
2018-11-23T14:58:04.855Z,94.60
2018-11-23T15:00:35.588Z,95.03
2018-11-23T15:03:05.903Z,95.41
2018-11-23T15:05:35.644Z,96.66
2018-11-23T15:08:05.153Z,96.97
2018-11-23T15:10:35.354Z,97.50
2018-11-23T15:13:05.483Z,98.20
2018-11-23T15:15:36.190Z,97.37
2018-11-23T15:18:06.012Z,99.11
2018-11-23T15:20:37.605Z,97.97
2018-11-23T15:23:15.747Z,98.67
2018-11-23T15:25:45.102Z,100.00
2018-11-23T15:28:15.023Z,100.00
2018-11-23T15:30:45.388Z,100.00
2018-11-23T15:33:17.152Z,99.55
2018-11-23T15:35:46.637Z,100.00
2018-11-23T15:38:18.320Z,100.00
2018-11-23T15:40:48.107Z,100.00
2018-11-23T15:43:18.376Z,100.00
2018-11-23T15:45:47.878Z,100.00
2018-11-23T15:48:17.333Z,100.00
2018-11-23T15:50:46.823Z,100.00
2018-11-23T15:53:17.111Z,100.00
2018-11-23T15:55:46.654Z,100.00
2018-11-23T15:58:17.270Z,100.00
2018-11-23T16:00:48.042Z,100.00
2018-11-23T16:03:17.886Z,100.00
2018-11-23T16:05:47.242Z,100.00
2018-11-23T16:08:17.953Z,100.00
2018-11-23T16:10:47.401Z,100.00
2018-11-23T16:13:16.780Z,100.00
2018-11-23T16:15:46.245Z,100.00
2018-11-23T16:18:15.552Z,100.00
2018-11-23T16:20:46.109Z,100.00
2018-11-23T16:23:16.911Z,100.00
2018-11-23T16:25:47.082Z,100.00
2018-11-23T16:28:16.602Z,100.00
2018-11-23T16:30:47.441Z,100.00
2018-11-23T16:33:19.195Z,100.00
2018-11-23T16:35:48.784Z,99.56
2018-11-23T16:38:20.327Z,100.00
2018-11-23T16:40:51.168Z,100.00
2018-11-23T16:43:20.464Z,99.58
2018-11-23T16:45:49.998Z,99.34
2018-11-23T16:48:20.164Z,99.86
2018-11-23T16:50:50.546Z,99.66
2018-11-23T16:53:20.022Z,99.56
2018-11-23T16:55:49.365Z,99.00
2018-11-23T16:58:18.983Z,99.36
2018-11-23T17:00:48.715Z,99.39
2018-11-23T17:03:19.582Z,98.69
2018-11-23T17:05:50.204Z,99.40
2018-11-23T17:08:19.668Z,99.40
2018-11-23T17:10:49.133Z,98.32
2018-11-23T17:13:18.526Z,99.10
2018-11-23T17:15:47.808Z,99.43
2018-11-23T17:18:17.322Z,100.00
2018-11-23T17:20:46.648Z,99.33
2018-11-23T17:23:16.041Z,98.79
2018-11-23T17:25:45.544Z,100.00
2018-11-23T17:28:14.990Z,99.84
2018-11-23T17:30:44.302Z,100.00
2018-11-23T17:33:13.537Z,100.00
2018-11-23T17:35:42.966Z,96.87
2018-11-23T17:38:12.277Z,99.89
2018-11-23T17:40:42.316Z,100.00
2018-11-23T17:43:12.144Z,100.00
2018-11-23T17:45:41.489Z,99.29
2018-11-23T17:48:10.958Z,100.00
2018-11-23T17:50:40.657Z,100.00
2018-11-23T17:53:10.151Z,100.00
2018-11-23T17:55:39.418Z,100.00
2018-11-23T17:58:08.705Z,100.00
2018-11-23T18:00:39.832Z,100.00
2018-11-23T18:03:09.355Z,100.00
2018-11-23T18:05:38.707Z,100.00
2018-11-23T18:08:08.073Z,100.00
2018-11-23T18:10:37.748Z,100.00
2018-11-23T18:13:07.031Z,100.00
2018-11-23T18:15:36.647Z,100.00
2018-11-23T18:18:06.841Z,100.00
2018-11-23T18:20:36.460Z,100.00
2018-11-23T18:23:06.251Z,100.00
2018-11-23T18:25:38.110Z,100.00
2018-11-23T18:28:07.593Z,100.00
2018-11-23T18:30:36.986Z,100.00
2018-11-23T18:33:07.829Z,100.00
2018-11-23T18:35:37.226Z,100.00
2018-11-23T18:38:06.746Z,100.00
2018-11-23T18:40:37.553Z,100.00
2018-11-23T18:43:05.861Z,100.00
2018-11-23T18:45:35.242Z,100.00
2018-11-23T18:48:04.542Z,100.00
2018-11-23T18:50:33.855Z,100.00
2018-11-23T18:53:04.924Z,100.00
2018-11-23T18:55:34.360Z,100.00
2018-11-23T18:58:04.728Z,100.00
2018-11-23T19:00:34.367Z,100.00
2018-11-23T19:03:03.738Z,100.00
2018-11-23T19:05:33.163Z,100.00
2018-11-23T19:08:02.902Z,100.00
2018-11-23T19:10:32.498Z,100.00
2018-11-23T19:13:02.019Z,100.00
2018-11-23T19:15:31.375Z,100.00
2018-11-23T19:18:00.852Z,100.00
2018-11-23T19:20:30.152Z,100.00
2018-11-23T19:22:59.516Z,100.00
2018-11-23T19:25:28.699Z,100.00
2018-11-23T19:27:58.066Z,100.00
2018-11-23T19:30:28.688Z,100.00
2018-11-23T19:32:57.071Z,100.00
2018-11-23T19:35:26.472Z,100.00
2018-11-23T19:37:55.791Z,100.00
2018-11-23T19:40:25.340Z,100.00
2018-11-23T19:42:54.623Z,100.00
2018-11-23T19:45:23.967Z,100.00
2018-11-23T19:47:53.223Z,100.00
2018-11-23T19:50:22.568Z,100.00
2018-11-23T19:52:52.036Z,100.00
2018-11-23T19:55:21.399Z,100.00
2018-11-23T19:57:50.554Z,100.00
2018-11-23T20:00:21.270Z,100.00
2018-11-23T20:02:50.639Z,100.00
2018-11-23T20:05:20.168Z,100.00
2018-11-23T20:07:51.639Z,100.00
2018-11-23T20:10:21.731Z,100.00
2018-11-23T20:12:53.665Z,100.00
2018-11-23T20:15:22.970Z,100.00
2018-11-23T20:17:52.263Z,100.00
2018-11-23T20:20:21.624Z,100.00
2018-11-23T20:22:51.421Z,100.00
2018-11-23T20:25:21.523Z,100.00
2018-11-23T20:27:51.984Z,100.00
2018-11-23T20:30:21.438Z,100.00
2018-11-23T20:32:50.663Z,100.00
2018-11-23T20:35:21.245Z,100.00
2018-11-23T20:37:50.568Z,100.00
2018-11-23T20:40:21.813Z,100.00
2018-11-23T20:42:51.049Z,100.00
2018-11-23T20:45:20.435Z,100.00
2018-11-23T20:47:49.800Z,100.00
2018-11-23T20:50:19.535Z,100.00
2018-11-23T20:52:49.226Z,100.00
2018-11-23T20:55:21.291Z,100.00
2018-11-23T20:57:50.763Z,100.00
2018-11-23T21:00:21.037Z,100.00
2018-11-23T21:02:51.337Z,100.00
2018-11-23T21:05:21.481Z,100.00
2018-11-23T21:07:51.256Z,100.00
2018-11-23T21:10:22.614Z,100.00
2018-11-23T21:12:52.175Z,100.00
2018-11-23T21:15:24.692Z,100.00
2018-11-23T21:17:54.110Z,100.00
2018-11-23T21:20:23.628Z,100.00
2018-11-23T21:22:53.089Z,100.00
2018-11-23T21:25:22.480Z,100.00
2018-11-23T21:27:52.057Z,100.00
2018-11-23T21:30:23.276Z,100.00
2018-11-23T21:32:53.323Z,100.00
2018-11-23T21:35:22.775Z,100.00
2018-11-23T21:37:52.237Z,100.00
2018-11-23T21:40:21.857Z,100.00
2018-11-23T21:42:51.178Z,100.00
2018-11-23T21:45:20.892Z,100.00
2018-11-23T21:47:50.332Z,100.00
2018-11-23T21:50:24.943Z,100.00
2018-11-23T21:52:50.152Z,100.00
2018-11-23T21:55:23.629Z,100.00
2018-11-23T21:57:53.708Z,100.00
2018-11-23T22:00:23.271Z,100.00
2018-11-23T22:02:52.706Z,100.00
2018-11-23T22:05:22.208Z,100.00
2018-11-23T22:07:52.055Z,100.00
2018-11-23T22:10:21.714Z,100.00
2018-11-23T22:12:51.186Z,100.00
2018-11-23T22:15:24.339Z,100.00
2018-11-23T22:17:54.941Z,100.00
2018-11-23T22:20:26.876Z,100.00
2018-11-23T22:22:56.308Z,100.00
2018-11-23T22:25:25.626Z,100.00
2018-11-23T22:27:55.214Z,100.00
2018-11-23T22:30:27.608Z,100.00
2018-11-23T22:32:57.116Z,100.00
2018-11-23T22:35:26.967Z,100.00
2018-11-23T22:37:56.525Z,100.00
2018-11-23T22:40:26.053Z,100.00
2018-11-23T22:42:57.671Z,100.00
2018-11-23T22:45:27.013Z,100.00
2018-11-23T22:47:56.547Z,100.00
2018-11-23T22:50:25.869Z,100.00
2018-11-23T22:52:55.030Z,100.00
2018-11-23T22:55:24.477Z,100.00
2018-11-23T22:57:54.117Z,100.00
2018-11-23T23:00:31.116Z,100.00
2018-11-23T23:03:00.645Z,100.00
2018-11-23T23:05:30.214Z,100.00
2018-11-23T23:07:59.973Z,100.00
2018-11-23T23:10:29.539Z,100.00
2018-11-23T23:12:58.812Z,100.00
2018-11-23T23:15:28.399Z,100.00
2018-11-23T23:17:57.872Z,100.00
2018-11-23T23:20:27.447Z,100.00
2018-11-23T23:22:56.835Z,100.00
2018-11-23T23:25:26.304Z,100.00
2018-11-23T23:27:55.801Z,100.00
2018-11-23T23:30:25.332Z,100.00
2018-11-23T23:32:54.764Z,100.00
2018-11-23T23:35:24.104Z,100.00
2018-11-23T23:37:53.642Z,100.00
2018-11-23T23:40:22.925Z,100.00
2018-11-23T23:42:52.324Z,100.00
2018-11-23T23:45:22.033Z,100.00
2018-11-23T23:47:51.507Z,100.00
2018-11-23T23:50:22.457Z,100.00
2018-11-23T23:52:52.284Z,100.00
2018-11-23T23:55:21.642Z,100.00
2018-11-23T23:57:51.150Z,100.00
